sensor_id;sensor_type;location;lat;lon;timestamp;P1;durP1;ratioP1;P2;durP2;ratioP2
39890;SDS011;25564;53.312;9.790;2022-12-07T00:02:16;37.07;;;15.73;;
39890;SDS011;25564;53.312;9.790;2022-12-07T00:04:48;35.87;;;13.17;;
39890;SDS011;25564;53.312;9.790;2022-12-07T00:07:20;34.23;;;14.00;;
39890;SDS011;25564;53.312;9.790;2022-12-07T00:09:58;33.43;;;13.80;;
39890;SDS011;25564;53.312;9.790;2022-12-07T00:12:30;34.33;;;12.13;;
39890;SDS011;25564;53.312;9.790;2022-12-07T00:15:02;27.80;;;12.23;;
39890;SDS011;25564;53.312;9.790;2022-12-07T00:17:33;26.30;;;13.33;;
39890;SDS011;25564;53.312;9.790;2022-12-07T00:20:05;30.27;;;11.90;;
39890;SDS011;25564;53.312;9.790;2022-12-07T00:22:38;36.50;;;14.37;;
39890;SDS011;25564;53.312;9.790;2022-12-07T00:25:09;30.73;;;13.10;;
39890;SDS011;25564;53.312;9.790;2022-12-07T00:27:41;36.60;;;13.90;;
39890;SDS011;25564;53.312;9.790;2022-12-07T00:30:12;35.70;;;15.33;;
39890;SDS011;25564;53.312;9.790;2022-12-07T00:32:44;37.83;;;15.43;;
39890;SDS011;25564;53.312;9.790;2022-12-07T00:35:16;40.47;;;14.93;;
39890;SDS011;25564;53.312;9.790;2022-12-07T00:37:47;38.57;;;13.63;;
39890;SDS011;25564;53.312;9.790;2022-12-07T00:40:19;36.90;;;14.20;;
39890;SDS011;25564;53.312;9.790;2022-12-07T00:42:52;36.20;;;14.37;;
39890;SDS011;25564;53.312;9.790;2022-12-07T00:45:23;29.23;;;12.50;;
39890;SDS011;25564;53.312;9.790;2022-12-07T00:47:55;35.00;;;14.93;;
39890;SDS011;25564;53.312;9.790;2022-12-07T00:50:27;32.50;;;13.27;;
39890;SDS011;25564;53.312;9.790;2022-12-07T00:52:59;32.17;;;14.47;;
39890;SDS011;25564;53.312;9.790;2022-12-07T00:55:33;35.43;;;14.27;;
39890;SDS011;25564;53.312;9.790;2022-12-07T00:58:05;32.10;;;14.03;;
39890;SDS011;25564;53.312;9.790;2022-12-07T01:00:37;32.77;;;13.90;;
39890;SDS011;25564;53.312;9.790;2022-12-07T01:03:12;32.67;;;12.63;;
39890;SDS011;25564;53.312;9.790;2022-12-07T01:05:51;32.17;;;12.90;;
39890;SDS011;25564;53.312;9.790;2022-12-07T01:08:24;33.77;;;12.73;;
39890;SDS011;25564;53.312;9.790;2022-12-07T01:10:59;31.17;;;11.73;;
39890;SDS011;25564;53.312;9.790;2022-12-07T01:13:33;28.17;;;11.20;;
39890;SDS011;25564;53.312;9.790;2022-12-07T01:16:07;28.93;;;12.40;;
39890;SDS011;25564;53.312;9.790;2022-12-07T01:18:39;34.50;;;11.00;;
39890;SDS011;25564;53.312;9.790;2022-12-07T01:21:12;21.70;;;9.93;;
39890;SDS011;25564;53.312;9.790;2022-12-07T01:23:49;28.37;;;11.10;;
39890;SDS011;25564;53.312;9.790;2022-12-07T01:26:21;25.37;;;11.20;;
39890;SDS011;25564;53.312;9.790;2022-12-07T01:28:54;17.73;;;8.90;;
39890;SDS011;25564;53.312;9.790;2022-12-07T01:31:27;20.63;;;9.17;;
39890;SDS011;25564;53.312;9.790;2022-12-07T01:33:59;22.93;;;8.83;;
39890;SDS011;25564;53.312;9.790;2022-12-07T01:36:33;21.67;;;8.13;;
39890;SDS011;25564;53.312;9.790;2022-12-07T01:39:07;24.87;;;10.43;;
39890;SDS011;25564;53.312;9.790;2022-12-07T01:41:40;21.43;;;9.73;;
39890;SDS011;25564;53.312;9.790;2022-12-07T01:47:02;21.02;;;9.15;;
39890;SDS011;25564;53.312;9.790;2022-12-07T01:49:37;15.53;;;8.13;;
39890;SDS011;25564;53.312;9.790;2022-12-07T01:52:23;22.37;;;9.23;;
39890;SDS011;25564;53.312;9.790;2022-12-07T01:55:03;14.93;;;8.05;;
39890;SDS011;25564;53.312;9.790;2022-12-07T01:57:38;18.47;;;7.80;;
39890;SDS011;25564;53.312;9.790;2022-12-07T02:00:14;16.77;;;7.90;;
39890;SDS011;25564;53.312;9.790;2022-12-07T02:02:53;18.53;;;8.40;;
39890;SDS011;25564;53.312;9.790;2022-12-07T02:05:32;18.10;;;7.90;;
39890;SDS011;25564;53.312;9.790;2022-12-07T02:08:06;15.13;;;6.67;;
39890;SDS011;25564;53.312;9.790;2022-12-07T02:10:39;16.43;;;7.80;;
39890;SDS011;25564;53.312;9.790;2022-12-07T02:13:19;16.67;;;7.13;;
39890;SDS011;25564;53.312;9.790;2022-12-07T02:16:13;12.50;;;6.83;;
39890;SDS011;25564;53.312;9.790;2022-12-07T02:21:46;12.67;;;6.23;;
39890;SDS011;25564;53.312;9.790;2022-12-07T02:24:36;13.37;;;5.87;;
39890;SDS011;25564;53.312;9.790;2022-12-07T02:27:24;11.90;;;5.50;;
39890;SDS011;25564;53.312;9.790;2022-12-07T02:30:10;11.10;;;4.80;;
39890;SDS011;25564;53.312;9.790;2022-12-07T02:35:59;15.30;;;5.80;;
39890;SDS011;25564;53.312;9.790;2022-12-07T02:38:47;13.07;;;5.33;;
39890;SDS011;25564;53.312;9.790;2022-12-07T02:41:28;12.57;;;5.47;;
39890;SDS011;25564;53.312;9.790;2022-12-07T02:44:06;13.87;;;4.50;;
39890;SDS011;25564;53.312;9.790;2022-12-07T02:46:42;12.18;;;6.03;;
39890;SDS011;25564;53.312;9.790;2022-12-07T02:49:18;13.13;;;5.33;;
39890;SDS011;25564;53.312;9.790;2022-12-07T02:51:51;9.73;;;4.37;;
39890;SDS011;25564;53.312;9.790;2022-12-07T02:54:23;8.73;;;3.93;;
39890;SDS011;25564;53.312;9.790;2022-12-07T02:59:56;12.33;;;4.43;;
39890;SDS011;25564;53.312;9.790;2022-12-07T03:05:28;10.77;;;4.70;;
39890;SDS011;25564;53.312;9.790;2022-12-07T03:10:53;12.67;;;4.40;;
39890;SDS011;25564;53.312;9.790;2022-12-07T03:16:33;8.13;;;3.90;;
39890;SDS011;25564;53.312;9.790;2022-12-07T03:19:14;10.13;;;4.07;;
39890;SDS011;25564;53.312;9.790;2022-12-07T03:21:53;11.90;;;4.60;;
39890;SDS011;25564;53.312;9.790;2022-12-07T03:24:30;8.20;;;3.37;;
39890;SDS011;25564;53.312;9.790;2022-12-07T03:27:11;7.33;;;3.10;;
39890;SDS011;25564;53.312;9.790;2022-12-07T03:29:50;11.83;;;4.27;;
39890;SDS011;25564;53.312;9.790;2022-12-07T03:32:29;8.83;;;3.03;;
39890;SDS011;25564;53.312;9.790;2022-12-07T03:38:05;6.70;;;3.05;;
39890;SDS011;25564;53.312;9.790;2022-12-07T03:40:55;10.20;;;3.00;;
39890;SDS011;25564;53.312;9.790;2022-12-07T03:43:32;11.73;;;2.77;;
39890;SDS011;25564;53.312;9.790;2022-12-07T03:49:08;8.23;;;2.73;;
39890;SDS011;25564;53.312;9.790;2022-12-07T03:54:52;9.23;;;2.77;;
39890;SDS011;25564;53.312;9.790;2022-12-07T03:57:35;6.20;;;2.27;;
39890;SDS011;25564;53.312;9.790;2022-12-07T04:00:09;10.73;;;2.67;;
39890;SDS011;25564;53.312;9.790;2022-12-07T04:02:42;7.73;;;3.10;;
39890;SDS011;25564;53.312;9.790;2022-12-07T04:05:14;8.17;;;2.90;;
39890;SDS011;25564;53.312;9.790;2022-12-07T04:07:46;10.03;;;2.00;;
39890;SDS011;25564;53.312;9.790;2022-12-07T04:10:18;6.37;;;2.10;;
39890;SDS011;25564;53.312;9.790;2022-12-07T04:12:49;3.67;;;2.07;;
39890;SDS011;25564;53.312;9.790;2022-12-07T04:15:21;6.57;;;2.10;;
39890;SDS011;25564;53.312;9.790;2022-12-07T04:17:53;11.23;;;1.67;;
39890;SDS011;25564;53.312;9.790;2022-12-07T04:20:27;3.50;;;1.70;;
39890;SDS011;25564;53.312;9.790;2022-12-07T04:22:58;6.47;;;2.77;;
39890;SDS011;25564;53.312;9.790;2022-12-07T04:25:30;5.10;;;1.77;;
39890;SDS011;25564;53.312;9.790;2022-12-07T04:28:02;8.30;;;1.77;;
39890;SDS011;25564;53.312;9.790;2022-12-07T04:30:33;6.87;;;2.13;;
39890;SDS011;25564;53.312;9.790;2022-12-07T04:33:05;5.77;;;2.00;;
39890;SDS011;25564;53.312;9.790;2022-12-07T04:35:36;2.80;;;1.80;;
39890;SDS011;25564;53.312;9.790;2022-12-07T04:38:08;6.53;;;2.00;;
39890;SDS011;25564;53.312;9.790;2022-12-07T04:40:40;7.13;;;2.37;;
39890;SDS011;25564;53.312;9.790;2022-12-07T04:43:12;5.03;;;2.87;;
39890;SDS011;25564;53.312;9.790;2022-12-07T04:45:47;7.40;;;2.10;;
39890;SDS011;25564;53.312;9.790;2022-12-07T04:48:19;2.77;;;1.53;;
39890;SDS011;25564;53.312;9.790;2022-12-07T04:50:50;3.30;;;1.57;;
39890;SDS011;25564;53.312;9.790;2022-12-07T04:53:22;6.00;;;2.10;;
39890;SDS011;25564;53.312;9.790;2022-12-07T04:55:53;6.07;;;1.80;;
39890;SDS011;25564;53.312;9.790;2022-12-07T04:58:25;2.63;;;1.47;;
39890;SDS011;25564;53.312;9.790;2022-12-07T05:00:58;5.43;;;2.20;;
39890;SDS011;25564;53.312;9.790;2022-12-07T05:03:29;8.53;;;2.00;;
39890;SDS011;25564;53.312;9.790;2022-12-07T05:06:01;5.57;;;1.90;;
39890;SDS011;25564;53.312;9.790;2022-12-07T05:08:34;8.53;;;2.87;;
39890;SDS011;25564;53.312;9.790;2022-12-07T05:11:07;9.57;;;4.57;;
39890;SDS011;25564;53.312;9.790;2022-12-07T05:13:39;13.70;;;5.03;;
39890;SDS011;25564;53.312;9.790;2022-12-07T05:16:11;7.27;;;3.37;;
39890;SDS011;25564;53.312;9.790;2022-12-07T05:18:43;11.27;;;2.90;;
39890;SDS011;25564;53.312;9.790;2022-12-07T05:21:14;6.93;;;2.97;;
39890;SDS011;25564;53.312;9.790;2022-12-07T05:23:45;6.00;;;2.10;;
39890;SDS011;25564;53.312;9.790;2022-12-07T05:26:17;7.87;;;3.30;;
39890;SDS011;25564;53.312;9.790;2022-12-07T05:28:50;7.13;;;2.90;;
39890;SDS011;25564;53.312;9.790;2022-12-07T05:31:26;5.25;;;2.55;;
39890;SDS011;25564;53.312;9.790;2022-12-07T05:33:59;6.63;;;2.87;;
39890;SDS011;25564;53.312;9.790;2022-12-07T05:36:31;8.20;;;3.20;;
39890;SDS011;25564;53.312;9.790;2022-12-07T05:39:04;8.23;;;2.80;;
39890;SDS011;25564;53.312;9.790;2022-12-07T05:41:36;5.53;;;2.60;;
39890;SDS011;25564;53.312;9.790;2022-12-07T05:44:33;5.57;;;2.80;;
39890;SDS011;25564;53.312;9.790;2022-12-07T05:47:05;5.17;;;2.93;;
39890;SDS011;25564;53.312;9.790;2022-12-07T05:49:38;6.13;;;2.83;;
39890;SDS011;25564;53.312;9.790;2022-12-07T05:52:10;4.10;;;2.50;;
39890;SDS011;25564;53.312;9.790;2022-12-07T05:54:43;16.50;;;7.80;;
39890;SDS011;25564;53.312;9.790;2022-12-07T05:57:22;13.43;;;8.03;;
39890;SDS011;25564;53.312;9.790;2022-12-07T05:59:53;17.57;;;10.37;;
39890;SDS011;25564;53.312;9.790;2022-12-07T06:02:27;11.67;;;6.43;;
39890;SDS011;25564;53.312;9.790;2022-12-07T06:04:59;12.67;;;5.10;;
39890;SDS011;25564;53.312;9.790;2022-12-07T06:07:30;11.03;;;4.90;;
39890;SDS011;25564;53.312;9.790;2022-12-07T06:10:02;4.27;;;2.57;;
39890;SDS011;25564;53.312;9.790;2022-12-07T06:12:35;10.80;;;3.20;;
39890;SDS011;25564;53.312;9.790;2022-12-07T06:15:09;6.50;;;2.77;;
39890;SDS011;25564;53.312;9.790;2022-12-07T06:17:41;18.73;;;6.57;;
39890;SDS011;25564;53.312;9.790;2022-12-07T06:20:14;8.40;;;4.23;;
39890;SDS011;25564;53.312;9.790;2022-12-07T06:22:46;7.17;;;2.23;;
39890;SDS011;25564;53.312;9.790;2022-12-07T06:25:17;4.83;;;2.23;;
39890;SDS011;25564;53.312;9.790;2022-12-07T06:27:49;7.80;;;2.30;;
39890;SDS011;25564;53.312;9.790;2022-12-07T06:30:20;5.97;;;2.10;;
39890;SDS011;25564;53.312;9.790;2022-12-07T06:32:51;5.53;;;2.33;;
39890;SDS011;25564;53.312;9.790;2022-12-07T06:35:23;4.20;;;1.80;;
39890;SDS011;25564;53.312;9.790;2022-12-07T06:37:57;6.87;;;1.90;;
39890;SDS011;25564;53.312;9.790;2022-12-07T06:40:30;3.03;;;2.07;;
39890;SDS011;25564;53.312;9.790;2022-12-07T06:43:03;5.73;;;1.70;;
39890;SDS011;25564;53.312;9.790;2022-12-07T06:45:37;5.80;;;2.20;;
39890;SDS011;25564;53.312;9.790;2022-12-07T06:48:10;4.43;;;2.67;;
39890;SDS011;25564;53.312;9.790;2022-12-07T06:50:43;6.73;;;2.30;;
39890;SDS011;25564;53.312;9.790;2022-12-07T06:53:24;3.37;;;1.80;;
39890;SDS011;25564;53.312;9.790;2022-12-07T06:55:56;4.77;;;1.90;;
39890;SDS011;25564;53.312;9.790;2022-12-07T06:58:28;5.80;;;1.90;;
39890;SDS011;25564;53.312;9.790;2022-12-07T07:01:00;4.17;;;1.90;;
39890;SDS011;25564;53.312;9.790;2022-12-07T07:03:31;5.67;;;1.70;;
39890;SDS011;25564;53.312;9.790;2022-12-07T07:06:03;5.07;;;1.67;;
39890;SDS011;25564;53.312;9.790;2022-12-07T07:08:36;6.33;;;1.77;;
39890;SDS011;25564;53.312;9.790;2022-12-07T07:11:10;5.03;;;2.63;;
39890;SDS011;25564;53.312;9.790;2022-12-07T07:13:41;5.40;;;1.77;;
39890;SDS011;25564;53.312;9.790;2022-12-07T07:16:13;4.27;;;1.60;;
39890;SDS011;25564;53.312;9.790;2022-12-07T07:18:45;5.97;;;1.70;;
39890;SDS011;25564;53.312;9.790;2022-12-07T07:21:17;5.67;;;2.73;;
39890;SDS011;25564;53.312;9.790;2022-12-07T07:23:49;4.53;;;2.50;;
39890;SDS011;25564;53.312;9.790;2022-12-07T07:26:20;4.27;;;1.90;;
39890;SDS011;25564;53.312;9.790;2022-12-07T07:28:53;6.37;;;2.00;;
39890;SDS011;25564;53.312;9.790;2022-12-07T07:31:25;4.53;;;1.80;;
39890;SDS011;25564;53.312;9.790;2022-12-07T07:33:56;5.17;;;1.87;;
39890;SDS011;25564;53.312;9.790;2022-12-07T07:36:27;6.77;;;1.97;;
39890;SDS011;25564;53.312;9.790;2022-12-07T07:38:59;7.37;;;1.67;;
39890;SDS011;25564;53.312;9.790;2022-12-07T07:41:30;5.33;;;1.83;;
39890;SDS011;25564;53.312;9.790;2022-12-07T07:44:02;4.83;;;2.00;;
39890;SDS011;25564;53.312;9.790;2022-12-07T07:46:34;6.73;;;2.00;;
39890;SDS011;25564;53.312;9.790;2022-12-07T07:49:06;5.37;;;1.90;;
39890;SDS011;25564;53.312;9.790;2022-12-07T07:51:37;3.63;;;1.93;;
39890;SDS011;25564;53.312;9.790;2022-12-07T07:54:08;4.03;;;1.80;;
39890;SDS011;25564;53.312;9.790;2022-12-07T07:56:40;7.53;;;1.80;;
39890;SDS011;25564;53.312;9.790;2022-12-07T07:59:11;7.33;;;2.00;;
39890;SDS011;25564;53.312;9.790;2022-12-07T08:01:42;4.57;;;1.67;;
39890;SDS011;25564;53.312;9.790;2022-12-07T08:04:14;3.57;;;1.77;;
39890;SDS011;25564;53.312;9.790;2022-12-07T08:06:45;6.17;;;1.63;;
39890;SDS011;25564;53.312;9.790;2022-12-07T08:09:17;5.83;;;1.77;;
39890;SDS011;25564;53.312;9.790;2022-12-07T08:11:48;4.70;;;1.97;;
39890;SDS011;25564;53.312;9.790;2022-12-07T08:14:19;10.13;;;3.23;;
39890;SDS011;25564;53.312;9.790;2022-12-07T08:16:51;6.80;;;3.20;;
39890;SDS011;25564;53.312;9.790;2022-12-07T08:19:22;4.03;;;2.40;;
39890;SDS011;25564;53.312;9.790;2022-12-07T08:21:54;7.57;;;2.93;;
39890;SDS011;25564;53.312;9.790;2022-12-07T08:24:26;6.27;;;2.43;;
39890;SDS011;25564;53.312;9.790;2022-12-07T08:26:58;4.97;;;2.23;;
39890;SDS011;25564;53.312;9.790;2022-12-07T08:29:29;5.57;;;1.73;;
39890;SDS011;25564;53.312;9.790;2022-12-07T08:32:00;5.83;;;2.13;;
39890;SDS011;25564;53.312;9.790;2022-12-07T08:34:39;7.07;;;2.37;;
39890;SDS011;25564;53.312;9.790;2022-12-07T08:37:10;3.73;;;1.77;;
39890;SDS011;25564;53.312;9.790;2022-12-07T08:39:42;6.30;;;2.30;;
39890;SDS011;25564;53.312;9.790;2022-12-07T08:42:13;5.63;;;2.13;;
39890;SDS011;25564;53.312;9.790;2022-12-07T08:44:45;4.17;;;2.40;;
39890;SDS011;25564;53.312;9.790;2022-12-07T08:47:17;8.87;;;1.90;;
39890;SDS011;25564;53.312;9.790;2022-12-07T08:49:48;3.57;;;1.80;;
39890;SDS011;25564;53.312;9.790;2022-12-07T08:52:21;7.30;;;2.47;;
39890;SDS011;25564;53.312;9.790;2022-12-07T08:54:53;8.47;;;2.87;;
39890;SDS011;25564;53.312;9.790;2022-12-07T08:57:25;8.30;;;2.97;;
39890;SDS011;25564;53.312;9.790;2022-12-07T08:59:57;5.37;;;2.33;;
39890;SDS011;25564;53.312;9.790;2022-12-07T09:02:30;5.40;;;2.53;;
39890;SDS011;25564;53.312;9.790;2022-12-07T09:05:02;6.97;;;2.60;;
39890;SDS011;25564;53.312;9.790;2022-12-07T09:07:33;4.83;;;1.73;;
39890;SDS011;25564;53.312;9.790;2022-12-07T09:10:07;7.53;;;2.30;;
39890;SDS011;25564;53.312;9.790;2022-12-07T09:12:38;5.13;;;2.20;;
39890;SDS011;25564;53.312;9.790;2022-12-07T09:15:10;5.43;;;2.17;;
39890;SDS011;25564;53.312;9.790;2022-12-07T09:17:41;7.33;;;2.23;;
39890;SDS011;25564;53.312;9.790;2022-12-07T09:20:13;5.70;;;1.80;;
39890;SDS011;25564;53.312;9.790;2022-12-07T09:22:44;5.80;;;1.50;;
39890;SDS011;25564;53.312;9.790;2022-12-07T09:25:15;5.67;;;1.60;;
39890;SDS011;25564;53.312;9.790;2022-12-07T09:27:47;6.10;;;1.83;;
39890;SDS011;25564;53.312;9.790;2022-12-07T09:30:19;8.10;;;1.40;;
39890;SDS011;25564;53.312;9.790;2022-12-07T09:32:51;6.97;;;1.93;;
39890;SDS011;25564;53.312;9.790;2022-12-07T09:35:24;3.87;;;1.40;;
39890;SDS011;25564;53.312;9.790;2022-12-07T09:37:56;2.20;;;1.10;;
39890;SDS011;25564;53.312;9.790;2022-12-07T09:40:27;1.47;;;0.80;;
39890;SDS011;25564;53.312;9.790;2022-12-07T09:42:59;2.00;;;0.40;;
39890;SDS011;25564;53.312;9.790;2022-12-07T09:45:34;2.80;;;0.70;;
39890;SDS011;25564;53.312;9.790;2022-12-07T09:48:16;2.30;;;0.90;;
39890;SDS011;25564;53.312;9.790;2022-12-07T09:50:52;3.93;;;1.23;;
39890;SDS011;25564;53.312;9.790;2022-12-07T09:56:11;3.93;;;1.27;;
39890;SDS011;25564;53.312;9.790;2022-12-07T09:58:47;5.40;;;1.50;;
39890;SDS011;25564;53.312;9.790;2022-12-07T10:01:20;14.73;;;5.23;;
39890;SDS011;25564;53.312;9.790;2022-12-07T10:03:53;18.10;;;6.17;;
39890;SDS011;25564;53.312;9.790;2022-12-07T10:06:30;21.33;;;7.20;;
39890;SDS011;25564;53.312;9.790;2022-12-07T10:09:01;10.97;;;3.10;;
39890;SDS011;25564;53.312;9.790;2022-12-07T10:12:02;6.17;;;2.03;;
39890;SDS011;25564;53.312;9.790;2022-12-07T10:14:56;8.93;;;2.07;;
39890;SDS011;25564;53.312;9.790;2022-12-07T10:17:39;6.07;;;1.53;;
39890;SDS011;25564;53.312;9.790;2022-12-07T10:20:15;6.45;;;3.08;;
39890;SDS011;25564;53.312;9.790;2022-12-07T10:23:05;6.93;;;2.17;;
39890;SDS011;25564;53.312;9.790;2022-12-07T10:25:44;2.97;;;1.50;;
39890;SDS011;25564;53.312;9.790;2022-12-07T10:28:17;2.37;;;1.13;;
39890;SDS011;25564;53.312;9.790;2022-12-07T10:30:57;5.57;;;1.50;;
39890;SDS011;25564;53.312;9.790;2022-12-07T10:36:17;4.30;;;1.77;;
39890;SDS011;25564;53.312;9.790;2022-12-07T10:38:52;6.07;;;1.50;;
39890;SDS011;25564;53.312;9.790;2022-12-07T10:41:30;3.90;;;1.30;;
39890;SDS011;25564;53.312;9.790;2022-12-07T10:44:02;4.70;;;1.30;;
39890;SDS011;25564;53.312;9.790;2022-12-07T10:46:38;9.17;;;1.70;;
39890;SDS011;25564;53.312;9.790;2022-12-07T10:49:24;4.93;;;1.70;;
39890;SDS011;25564;53.312;9.790;2022-12-07T10:52:07;4.67;;;1.60;;
39890;SDS011;25564;53.312;9.790;2022-12-07T10:55:18;4.70;;;1.53;;
39890;SDS011;25564;53.312;9.790;2022-12-07T11:00:29;8.20;;;2.57;;
39890;SDS011;25564;53.312;9.790;2022-12-07T11:03:16;4.57;;;1.10;;
39890;SDS011;25564;53.312;9.790;2022-12-07T11:06:03;2.20;;;1.17;;
39890;SDS011;25564;53.312;9.790;2022-12-07T11:08:57;6.47;;;1.90;;
39890;SDS011;25564;53.312;9.790;2022-12-07T11:11:38;5.43;;;2.27;;
39890;SDS011;25564;53.312;9.790;2022-12-07T11:15:08;4.83;;;1.60;;
39890;SDS011;25564;53.312;9.790;2022-12-07T11:20:20;4.33;;;1.40;;
39890;SDS011;25564;53.312;9.790;2022-12-07T11:23:21;4.70;;;1.67;;
39890;SDS011;25564;53.312;9.790;2022-12-07T11:34:47;4.75;;;1.95;;
39890;SDS011;25564;53.312;9.790;2022-12-07T11:37:35;3.30;;;1.42;;
39890;SDS011;25564;53.312;9.790;2022-12-07T11:45:31;5.93;;;1.67;;
39890;SDS011;25564;53.312;9.790;2022-12-07T11:51:01;3.77;;;1.53;;
39890;SDS011;25564;53.312;9.790;2022-12-07T11:53:37;3.67;;;1.10;;
39890;SDS011;25564;53.312;9.790;2022-12-07T11:56:14;8.13;;;1.60;;
39890;SDS011;25564;53.312;9.790;2022-12-07T12:06:43;6.03;;;1.77;;
39890;SDS011;25564;53.312;9.790;2022-12-07T12:09:24;2.80;;;1.20;;
39890;SDS011;25564;53.312;9.790;2022-12-07T12:12:19;3.20;;;1.50;;
39890;SDS011;25564;53.312;9.790;2022-12-07T12:15:37;6.77;;;1.43;;
39890;SDS011;25564;53.312;9.790;2022-12-07T12:21:21;8.00;;;1.70;;
39890;SDS011;25564;53.312;9.790;2022-12-07T12:24:08;4.10;;;1.40;;
39890;SDS011;25564;53.312;9.790;2022-12-07T12:26:49;4.47;;;1.98;;
39890;SDS011;25564;53.312;9.790;2022-12-07T12:32:06;5.03;;;1.83;;
39890;SDS011;25564;53.312;9.790;2022-12-07T12:45:25;6.20;;;1.37;;
39890;SDS011;25564;53.312;9.790;2022-12-07T12:48:00;7.83;;;1.70;;
39890;SDS011;25564;53.312;9.790;2022-12-07T12:50:38;4.13;;;1.25;;
39890;SDS011;25564;53.312;9.790;2022-12-07T12:53:19;5.13;;;1.27;;
39890;SDS011;25564;53.312;9.790;2022-12-07T12:58:47;3.67;;;0.90;;
39890;SDS011;25564;53.312;9.790;2022-12-07T13:06:58;5.17;;;1.23;;
39890;SDS011;25564;53.312;9.790;2022-12-07T13:09:31;4.30;;;1.00;;
39890;SDS011;25564;53.312;9.790;2022-12-07T13:12:11;3.10;;;1.35;;
39890;SDS011;25564;53.312;9.790;2022-12-07T13:14:53;3.60;;;0.93;;
39890;SDS011;25564;53.312;9.790;2022-12-07T13:20:05;3.30;;;1.23;;
39890;SDS011;25564;53.312;9.790;2022-12-07T13:22:48;5.70;;;1.00;;
39890;SDS011;25564;53.312;9.790;2022-12-07T13:25:30;3.07;;;1.10;;
39890;SDS011;25564;53.312;9.790;2022-12-07T13:28:10;1.97;;;1.07;;
39890;SDS011;25564;53.312;9.790;2022-12-07T13:30:50;3.47;;;1.50;;
39890;SDS011;25564;53.312;9.790;2022-12-07T13:33:30;4.97;;;1.60;;
39890;SDS011;25564;53.312;9.790;2022-12-07T13:36:08;6.53;;;1.50;;
39890;SDS011;25564;53.312;9.790;2022-12-07T13:38:49;7.20;;;1.90;;
39890;SDS011;25564;53.312;9.790;2022-12-07T13:41:23;3.60;;;1.10;;
39890;SDS011;25564;53.312;9.790;2022-12-07T13:44:00;5.57;;;1.40;;
39890;SDS011;25564;53.312;9.790;2022-12-07T13:46:50;4.30;;;1.53;;
39890;SDS011;25564;53.312;9.790;2022-12-07T13:49:29;3.57;;;1.40;;
39890;SDS011;25564;53.312;9.790;2022-12-07T13:54:57;2.93;;;1.20;;
39890;SDS011;25564;53.312;9.790;2022-12-07T13:57:31;5.07;;;1.37;;
39890;SDS011;25564;53.312;9.790;2022-12-07T14:00:13;3.10;;;1.50;;
39890;SDS011;25564;53.312;9.790;2022-12-07T14:03:00;3.70;;;1.20;;
39890;SDS011;25564;53.312;9.790;2022-12-07T14:05:34;6.67;;;1.80;;
39890;SDS011;25564;53.312;9.790;2022-12-07T14:10:53;4.60;;;1.40;;
39890;SDS011;25564;53.312;9.790;2022-12-07T14:16:03;3.42;;;1.63;;
39890;SDS011;25564;53.312;9.790;2022-12-07T14:18:48;7.23;;;1.93;;
39890;SDS011;25564;53.312;9.790;2022-12-07T14:21:20;2.33;;;1.23;;
39890;SDS011;25564;53.312;9.790;2022-12-07T14:24:11;6.00;;;1.40;;
39890;SDS011;25564;53.312;9.790;2022-12-07T14:26:47;3.43;;;1.23;;
39890;SDS011;25564;53.312;9.790;2022-12-07T14:31:58;2.67;;;1.07;;
39890;SDS011;25564;53.312;9.790;2022-12-07T14:34:52;6.15;;;1.55;;
39890;SDS011;25564;53.312;9.790;2022-12-07T14:37:32;6.33;;;1.13;;
39890;SDS011;25564;53.312;9.790;2022-12-07T14:40:04;4.50;;;1.53;;
39890;SDS011;25564;53.312;9.790;2022-12-07T14:42:35;3.07;;;1.40;;
39890;SDS011;25564;53.312;9.790;2022-12-07T14:45:12;3.47;;;1.60;;
39890;SDS011;25564;53.312;9.790;2022-12-07T14:47:46;4.37;;;1.90;;
39890;SDS011;25564;53.312;9.790;2022-12-07T14:50:39;2.50;;;1.50;;
39890;SDS011;25564;53.312;9.790;2022-12-07T14:53:41;9.30;;;2.07;;
39890;SDS011;25564;53.312;9.790;2022-12-07T14:56:20;5.20;;;2.00;;
39890;SDS011;25564;53.312;9.790;2022-12-07T14:58:51;6.60;;;1.70;;
39890;SDS011;25564;53.312;9.790;2022-12-07T15:01:23;3.90;;;1.70;;
39890;SDS011;25564;53.312;9.790;2022-12-07T15:03:54;5.33;;;2.07;;
39890;SDS011;25564;53.312;9.790;2022-12-07T15:06:25;9.03;;;1.73;;
39890;SDS011;25564;53.312;9.790;2022-12-07T15:08:57;3.90;;;1.83;;
39890;SDS011;25564;53.312;9.790;2022-12-07T15:11:28;4.37;;;1.73;;
39890;SDS011;25564;53.312;9.790;2022-12-07T15:13:59;4.77;;;1.83;;
39890;SDS011;25564;53.312;9.790;2022-12-07T15:16:41;7.30;;;1.73;;
39890;SDS011;25564;53.312;9.790;2022-12-07T15:19:34;3.50;;;1.27;;
39890;SDS011;25564;53.312;9.790;2022-12-07T15:22:05;4.83;;;1.70;;
39890;SDS011;25564;53.312;9.790;2022-12-07T15:24:37;2.30;;;1.30;;
39890;SDS011;25564;53.312;9.790;2022-12-07T15:27:08;4.67;;;1.70;;
39890;SDS011;25564;53.312;9.790;2022-12-07T15:29:39;6.30;;;1.73;;
39890;SDS011;25564;53.312;9.790;2022-12-07T15:32:11;4.23;;;1.67;;
39890;SDS011;25564;53.312;9.790;2022-12-07T15:34:42;8.17;;;1.70;;
39890;SDS011;25564;53.312;9.790;2022-12-07T15:37:13;6.73;;;2.53;;
39890;SDS011;25564;53.312;9.790;2022-12-07T15:39:45;2.50;;;1.37;;
39890;SDS011;25564;53.312;9.790;2022-12-07T15:42:16;5.93;;;2.30;;
39890;SDS011;25564;53.312;9.790;2022-12-07T15:44:48;6.73;;;1.67;;
39890;SDS011;25564;53.312;9.790;2022-12-07T15:47:41;4.83;;;1.40;;
39890;SDS011;25564;53.312;9.790;2022-12-07T15:50:34;4.20;;;1.70;;
39890;SDS011;25564;53.312;9.790;2022-12-07T15:53:05;4.53;;;2.20;;
39890;SDS011;25564;53.312;9.790;2022-12-07T15:55:40;12.27;;;5.07;;
39890;SDS011;25564;53.312;9.790;2022-12-07T15:58:11;20.87;;;8.07;;
39890;SDS011;25564;53.312;9.790;2022-12-07T16:00:43;12.57;;;6.10;;
39890;SDS011;25564;53.312;9.790;2022-12-07T16:03:14;10.57;;;5.60;;
39890;SDS011;25564;53.312;9.790;2022-12-07T16:05:51;11.37;;;4.00;;
39890;SDS011;25564;53.312;9.790;2022-12-07T16:08:24;13.90;;;3.83;;
39890;SDS011;25564;53.312;9.790;2022-12-07T16:10:55;8.20;;;3.07;;
39890;SDS011;25564;53.312;9.790;2022-12-07T16:13:26;5.97;;;2.40;;
39890;SDS011;25564;53.312;9.790;2022-12-07T16:15:58;5.17;;;2.20;;
39890;SDS011;25564;53.312;9.790;2022-12-07T16:18:35;9.17;;;2.50;;
39890;SDS011;25564;53.312;9.790;2022-12-07T16:21:06;9.57;;;3.47;;
39890;SDS011;25564;53.312;9.790;2022-12-07T16:23:38;3.10;;;1.93;;
39890;SDS011;25564;53.312;9.790;2022-12-07T16:26:14;5.63;;;1.73;;
39890;SDS011;25564;53.312;9.790;2022-12-07T16:28:50;3.17;;;1.53;;
39890;SDS011;25564;53.312;9.790;2022-12-07T16:31:24;4.78;;;1.83;;
39890;SDS011;25564;53.312;9.790;2022-12-07T16:33:57;4.07;;;1.43;;
39890;SDS011;25564;53.312;9.790;2022-12-07T16:36:29;5.73;;;1.97;;
39890;SDS011;25564;53.312;9.790;2022-12-07T16:39:21;4.70;;;1.90;;
39890;SDS011;25564;53.312;9.790;2022-12-07T16:41:52;4.80;;;2.10;;
39890;SDS011;25564;53.312;9.790;2022-12-07T16:44:24;5.23;;;2.50;;
39890;SDS011;25564;53.312;9.790;2022-12-07T16:46:56;6.20;;;2.37;;
39890;SDS011;25564;53.312;9.790;2022-12-07T16:49:27;6.27;;;2.50;;
39890;SDS011;25564;53.312;9.790;2022-12-07T16:51:59;8.17;;;2.20;;
39890;SDS011;25564;53.312;9.790;2022-12-07T16:54:50;6.13;;;3.40;;
39890;SDS011;25564;53.312;9.790;2022-12-07T16:57:21;7.47;;;2.90;;
39890;SDS011;25564;53.312;9.790;2022-12-07T16:59:54;7.13;;;2.90;;
39890;SDS011;25564;53.312;9.790;2022-12-07T17:02:25;9.07;;;3.03;;
39890;SDS011;25564;53.312;9.790;2022-12-07T17:04:56;5.10;;;2.40;;
39890;SDS011;25564;53.312;9.790;2022-12-07T17:07:28;5.73;;;2.97;;
39890;SDS011;25564;53.312;9.790;2022-12-07T17:09:59;7.73;;;2.53;;
39890;SDS011;25564;53.312;9.790;2022-12-07T17:12:30;11.07;;;4.37;;
39890;SDS011;25564;53.312;9.790;2022-12-07T17:15:02;6.43;;;3.53;;
39890;SDS011;25564;53.312;9.790;2022-12-07T17:20:29;12.50;;;3.27;;